Time;durP1;ratioP1;P1;durP2;ratioP2;P2;SDS_P1;SDS_P2;PMS_P1;PMS_P2;Temp;Humidity;BMP_temperature;BMP_pressure;BME280_temperature;BME280_humidity;BME280_pressure;Samples;Min_cycle;Max_cycle;Signal;HPM_P1;HPM_P2
2023/08/07 00:02:31;;;;;;;4.53;1.88;;;12.30;1.00;;;;;;7389715;19;20015;-69
2023/08/07 00:05:01;;;;;;;3.63;1.38;;;12.30;1.00;;;;;;7389988;19;20182;-69
2023/08/07 00:07:31;;;;;;;3.60;1.80;;;12.30;1.00;;;;;;7390998;19;20015;-69
2023/08/07 00:10:03;;;;;;;2.85;1.55;;;12.30;1.00;;;;;;7389664;19;20035;-69
2023/08/07 00:12:33;;;;;;;4.15;1.73;;;12.40;1.00;;;;;;7388330;19;20371;-69
2023/08/07 00:15:04;;;;;;;2.50;1.38;;;12.40;1.00;;;;;;7387391;19;20554;-69
2023/08/07 00:17:36;;;;;;;5.75;1.55;;;12.30;1.00;;;;;;7390523;19;20018;-69
2023/08/07 00:20:08;;;;;;;4.50;1.45;;;12.30;1.00;;;;;;7390377;19;20046;-69
2023/08/07 00:22:38;;;;;;;3.45;1.50;;;12.30;1.00;;;;;;7390180;19;20018;-69
2023/08/07 00:25:08;;;;;;;3.67;1.60;;;12.30;1.00;;;;;;7385710;19;20073;-70
2023/08/07 00:27:38;;;;;;;4.43;1.70;;;12.30;1.00;;;;;;7390676;19;20471;-70
2023/08/07 00:30:09;;;;;;;3.67;1.52;;;12.30;1.00;;;;;;7388854;19;20081;-69
2023/08/07 00:32:42;;;;;;;3.22;1.60;;;12.30;1.00;;;;;;7390418;19;20487;-69
2023/08/07 00:35:12;;;;;;;6.13;1.83;;;12.30;1.00;;;;;;7386976;19;20022;-69
2023/08/07 00:37:42;;;;;;;4.25;1.45;;;12.30;1.00;;;;;;7393113;19;20098;-69
2023/08/07 00:40:13;;;;;;;2.85;1.50;;;12.30;1.00;;;;;;7396308;19;20104;-69
2023/08/07 00:42:43;;;;;;;3.97;1.58;;;12.40;1.00;;;;;;7397536;19;20003;-69
2023/08/07 00:45:13;;;;;;;6.03;1.80;;;12.40;1.00;;;;;;7393913;19;20377;-69
2023/08/07 00:47:45;;;;;;;3.08;1.30;;;12.40;1.00;;;;;;7397981;19;20073;-69
2023/08/07 00:50:16;;;;;;;4.30;1.67;;;12.50;1.00;;;;;;7395290;19;20077;-69
2023/08/07 00:52:46;;;;;;;2.25;1.30;;;12.50;1.00;;;;;;7397607;19;20014;-69
2023/08/07 00:55:16;;;;;;;3.13;1.45;;;12.50;1.00;;;;;;7393180;19;20082;-70
2023/08/07 00:57:46;;;;;;;3.20;1.67;;;12.50;1.00;;;;;;7397221;19;20038;-69
2023/08/07 01:00:18;;;;;;;5.93;1.30;;;12.50;1.00;;;;;;7395928;19;20090;-70
2023/08/07 01:02:51;;;;;;;3.75;1.67;;;12.50;1.00;;;;;;7395650;19;20027;-69
2023/08/07 01:05:21;;;;;;;2.13;1.30;;;12.50;1.00;;;;;;7393517;19;20010;-69
2023/08/07 01:07:54;;;;;;;2.30;1.73;;;12.50;1.00;;;;;;7396400;19;20010;-68
2023/08/07 01:10:32;;;;;;;4.93;1.60;;;12.50;1.00;;;;;;7394916;19;20014;-69
2023/08/07 01:13:10;;;;;;;4.85;1.65;;;12.50;1.00;;;;;;7396305;19;20469;-69
2023/08/07 01:15:41;;;;;;;4.18;1.95;;;12.40;1.00;;;;;;7391224;19;20070;-68
2023/08/07 01:18:14;;;;;;;3.67;1.45;;;12.40;1.00;;;;;;7395562;19;20018;-68
2023/08/07 01:20:44;;;;;;;3.08;1.40;;;12.40;1.00;;;;;;7395346;19;20086;-68
2023/08/07 01:23:16;;;;;;;5.75;1.83;;;12.40;1.00;;;;;;7395412;19;20019;-68
2023/08/07 01:25:46;;;;;;;4.13;1.60;;;12.40;1.00;;;;;;7393349;19;20438;-69
2023/08/07 01:28:21;;;;;;;4.25;1.55;;;12.40;1.00;;;;;;7396134;19;20011;-69
2023/08/07 01:30:57;;;;;;;3.67;1.48;;;12.40;1.00;;;;;;7393571;19;20017;-68
2023/08/07 01:33:33;;;;;;;5.53;1.58;;;12.40;1.00;;;;;;7395869;19;20025;-69
2023/08/07 01:36:07;;;;;;;3.47;1.67;;;12.40;1.00;;;;;;7390410;19;20014;-69
2023/08/07 01:38:40;;;;;;;4.18;1.60;;;12.40;1.00;;;;;;7394117;19;20014;-69
2023/08/07 01:41:11;;;;;;;3.47;1.60;;;12.40;1.00;;;;;;7393538;19;20014;-69
2023/08/07 01:43:41;;;;;;;3.08;1.60;;;12.50;1.00;;;;;;7395510;19;20019;-68
2023/08/07 01:46:11;;;;;;;4.72;2.17;;;12.50;1.00;;;;;;7392666;19;20018;-67
2023/08/07 01:48:41;;;;;;;4.90;1.98;;;12.40;1.00;;;;;;7393771;19;20018;-69
2023/08/07 01:51:10;;;;;;;2.53;1.50;;;12.40;1.00;;;;;;7390671;19;20386;-69
2023/08/07 01:53:43;;;;;;;3.13;1.40;;;12.40;1.00;;;;;;7394151;19;20082;-69
2023/08/07 01:56:13;;;;;;;2.38;1.33;;;12.40;1.00;;;;;;7391858;19;20041;-68
2023/08/07 01:58:43;;;;;;;4.55;1.67;;;12.40;1.00;;;;;;7395145;19;20010;-68
2023/08/07 02:01:15;;;;;;;3.13;1.60;;;12.40;1.00;;;;;;7392763;19;20017;-68
2023/08/07 02:03:45;;;;;;;3.88;1.55;;;12.40;1.00;;;;;;7393361;19;20011;-69
2023/08/07 02:06:15;;;;;;;3.33;1.50;;;12.40;1.00;;;;;;7392515;19;20017;-69
2023/08/07 02:08:48;;;;;;;3.75;1.52;;;12.40;1.00;;;;;;7394973;19;20021;-69
2023/08/07 02:11:18;;;;;;;7.82;2.05;;;12.40;1.00;;;;;;7392264;19;20003;-69
2023/08/07 02:13:48;;;;;;;3.70;1.50;;;12.40;1.00;;;;;;7393053;19;20078;-69
2023/08/07 02:16:17;;;;;;;4.07;1.50;;;12.40;1.00;;;;;;7389823;19;20014;-69
2023/08/07 02:18:47;;;;;;;6.07;1.63;;;12.40;1.00;;;;;;7392175;19;20038;-69
2023/08/07 02:21:17;;;;;;;4.45;1.58;;;12.30;1.00;;;;;;7391104;19;20018;-69
2023/08/07 02:23:50;;;;;;;4.15;1.63;;;12.30;1.00;;;;;;7393192;19;20016;-69
2023/08/07 02:26:20;;;;;;;5.63;1.55;;;12.30;1.00;;;;;;7392359;19;20086;-69
2023/08/07 02:28:50;;;;;;;4.28;1.70;;;12.30;1.00;;;;;;7392072;19;20018;-69
2023/08/07 02:31:19;;;;;;;4.43;2.08;;;12.20;1.00;;;;;;7392747;19;20029;-69
2023/08/07 02:33:49;;;;;;;5.75;1.52;;;12.30;1.00;;;;;;7393623;19;20010;-69
2023/08/07 02:36:19;;;;;;;3.97;1.60;;;12.30;1.00;;;;;;7391581;19;20485;-69
2023/08/07 02:38:52;;;;;;;5.60;1.88;;;12.20;1.00;;;;;;7392940;19;20014;-69
2023/08/07 02:41:21;;;;;;;3.88;1.65;;;12.20;1.00;;;;;;7391250;19;20014;-69
2023/08/07 02:43:51;;;;;;;2.92;1.80;;;12.20;1.00;;;;;;7392825;19;20011;-69
2023/08/07 02:46:21;;;;;;;3.42;1.60;;;12.20;1.00;;;;;;7392741;19;20011;-69
2023/08/07 02:48:52;;;;;;;3.20;1.70;;;12.20;1.00;;;;;;7392309;19;20015;-69
2023/08/07 02:51:22;;;;;;;4.38;2.00;;;12.20;1.00;;;;;;7391870;19;20098;-69
2023/08/07 02:53:55;;;;;;;5.05;2.00;;;12.20;1.00;;;;;;7392221;19;20011;-69
2023/08/07 02:56:24;;;;;;;5.38;1.90;;;12.10;1.00;;;;;;7391155;19;20082;-69
2023/08/07 02:58:54;;;;;;;4.18;1.60;;;12.10;1.00;;;;;;7391323;19;20031;-69
2023/08/07 03:01:24;;;;;;;4.63;2.03;;;12.10;1.00;;;;;;7387025;19;20470;-69
2023/08/07 03:03:54;;;;;;;4.10;1.92;;;12.10;1.00;;;;;;7391922;19;20025;-69
2023/08/07 03:06:24;;;;;;;4.20;1.80;;;12.10;1.00;;;;;;7390404;19;20021;-69
2023/08/07 03:08:57;;;;;;;4.28;1.77;;;12.10;1.00;;;;;;7390056;19;20015;-69
2023/08/07 03:11:27;;;;;;;6.82;1.48;;;12.10;1.00;;;;;;7389468;19;20010;-69
2023/08/07 03:13:57;;;;;;;2.90;1.58;;;12.10;1.00;;;;;;7391891;19;20073;-69
2023/08/07 03:16:27;;;;;;;3.78;1.88;;;12.10;1.00;;;;;;7389718;19;20021;-69
2023/08/07 03:18:57;;;;;;;6.82;2.58;;;12.10;1.00;;;;;;7389516;19;20482;-69
2023/08/07 03:21:27;;;;;;;7.80;1.52;;;12.10;1.00;;;;;;7389146;19;20018;-68
2023/08/07 03:23:59;;;;;;;4.18;1.60;;;12.10;1.00;;;;;;7390699;19;20265;-69
2023/08/07 03:26:29;;;;;;;3.25;1.80;;;12.10;1.00;;;;;;7390458;19;20487;-68
2023/08/07 03:28:59;;;;;;;5.22;1.80;;;12.10;1.00;;;;;;7391683;19;20078;-69
2023/08/07 03:31:29;;;;;;;6.60;2.15;;;12.10;1.00;;;;;;7388581;19;20078;-68
2023/08/07 03:33:59;;;;;;;4.10;1.75;;;12.20;1.00;;;;;;7391259;19;20010;-69
2023/08/07 03:36:29;;;;;;;6.70;1.80;;;12.10;1.00;;;;;;7389841;19;20551;-69
2023/08/07 03:39:01;;;;;;;4.50;1.75;;;12.20;1.00;;;;;;7391190;19;20118;-69
2023/08/07 03:41:31;;;;;;;4.47;1.92;;;12.10;1.00;;;;;;7389150;19;20477;-69
2023/08/07 03:44:01;;;;;;;5.20;1.70;;;12.10;1.00;;;;;;7389677;19;20031;-69
2023/08/07 03:46:31;;;;;;;4.93;1.83;;;12.10;1.00;;;;;;7390230;19;20030;-68
2023/08/07 03:49:01;;;;;;;7.57;2.10;;;12.10;1.00;;;;;;7390953;19;20069;-69
2023/08/07 03:51:32;;;;;;;8.43;2.10;;;12.20;1.00;;;;;;7388721;19;20077;-69
2023/08/07 03:54:04;;;;;;;3.67;1.65;;;12.10;1.00;;;;;;7390891;19;20006;-69
2023/08/07 03:56:36;;;;;;;6.40;1.50;;;12.10;1.00;;;;;;7388836;19;20024;-69
2023/08/07 03:59:06;;;;;;;5.18;1.92;;;12.10;1.00;;;;;;7390611;19;20085;-69
2023/08/07 04:01:36;;;;;;;4.30;1.65;;;12.20;1.00;;;;;;7389368;19;20018;-70
2023/08/07 04:04:06;;;;;;;2.97;1.70;;;12.20;1.00;;;;;;7388065;19;20018;-70
2023/08/07 04:06:36;;;;;;;3.80;1.60;;;12.10;1.00;;;;;;7388029;19;20387;-70
2023/08/07 04:09:10;;;;;;;5.65;1.60;;;12.10;1.00;;;;;;7389851;19;20006;-69
2023/08/07 04:11:40;;;;;;;7.23;1.90;;;12.10;1.00;;;;;;7388453;19;20014;-68
2023/08/07 04:14:10;;;;;;;3.50;1.75;;;12.10;1.00;;;;;;7397536;19;20342;-69
2023/08/07 04:16:40;;;;;;;3.63;1.40;;;12.20;1.00;;;;;;7397177;19;20035;-69
2023/08/07 04:19:10;;;;;;;4.68;1.60;;;12.20;1.00;;;;;;7397342;19;20021;-70
2023/08/07 04:21:40;;;;;;;4.88;1.73;;;12.20;1.00;;;;;;7393856;19;20042;-69
2023/08/07 04:24:13;;;;;;;3.65;1.60;;;12.20;1.00;;;;;;7397856;19;20019;-69
2023/08/07 04:26:42;;;;;;;3.65;1.80;;;12.20;1.00;;;;;;7396518;19;20015;-70
2023/08/07 04:29:12;;;;;;;3.97;1.63;;;12.30;1.00;;;;;;7398265;19;20027;-69
2023/08/07 04:31:42;;;;;;;5.65;2.28;;;12.20;1.00;;;;;;7392678;19;20358;-69
2023/08/07 04:34:12;;;;;;;3.22;1.35;;;12.30;1.00;;;;;;7395826;19;20018;-69
2023/08/07 04:36:42;;;;;;;5.32;2.22;;;12.30;1.00;;;;;;7396143;19;20389;-69
2023/08/07 04:39:15;;;;;;;3.97;1.52;;;12.30;1.00;;;;;;7397403;19;20025;-69
2023/08/07 04:41:45;;;;;;;7.80;2.00;;;12.30;1.00;;;;;;7393173;19;20490;-69
2023/08/07 04:44:15;;;;;;;5.68;1.70;;;12.30;1.00;;;;;;7394747;19;20082;-68
2023/08/07 04:46:45;;;;;;;7.72;2.00;;;12.30;1.00;;;;;;7394072;19;20006;-68
2023/08/07 04:49:15;;;;;;;3.42;1.65;;;12.30;1.00;;;;;;7397242;19;20017;-69
2023/08/07 04:51:44;;;;;;;4.70;1.73;;;12.30;1.00;;;;;;7394050;19;20031;-68
2023/08/07 04:54:17;;;;;;;11.52;2.15;;;12.30;1.00;;;;;;7396496;19;20084;-69
2023/08/07 04:56:48;;;;;;;4.47;1.58;;;12.30;1.00;;;;;;7395619;19;20553;-69
2023/08/07 04:59:18;;;;;;;3.67;1.60;;;12.40;1.00;;;;;;7394130;19;20027;-69
2023/08/07 05:01:48;;;;;;;2.28;1.65;;;12.30;1.00;;;;;;7390261;19;20014;-68
2023/08/07 05:04:18;;;;;;;3.20;1.52;;;12.40;1.00;;;;;;7395226;19;20095;-67
2023/08/07 05:06:48;;;;;;;3.25;1.70;;;12.30;1.00;;;;;;7394493;19;20081;-69
2023/08/07 05:09:21;;;;;;;6.22;1.52;;;12.40;1.00;;;;;;7395045;19;20472;-69
2023/08/07 05:11:51;;;;;;;5.35;1.55;;;12.40;1.00;;;;;;7393866;19;20090;-69
2023/08/07 05:14:21;;;;;;;3.67;1.73;;;12.40;1.00;;;;;;7394666;19;20086;-68
2023/08/07 05:16:51;;;;;;;5.18;2.05;;;12.40;1.00;;;;;;7395452;19;20081;-69
2023/08/07 05:19:21;;;;;;;5.50;1.73;;;12.40;1.00;;;;;;7393412;19;20010;-69
2023/08/07 05:21:51;;;;;;;5.32;1.85;;;12.40;1.00;;;;;;7392273;19;20094;-70
2023/08/07 05:24:23;;;;;;;5.43;1.83;;;12.40;1.00;;;;;;7392369;19;20014;-69
2023/08/07 05:26:53;;;;;;;2.53;1.83;;;12.40;1.00;;;;;;7394126;19;20015;-69
2023/08/07 05:29:23;;;;;;;4.72;1.83;;;12.50;1.00;;;;;;7393916;19;20011;-69
2023/08/07 05:31:53;;;;;;;6.28;1.70;;;12.50;1.00;;;;;;7395598;19;20027;-69
2023/08/07 05:34:24;;;;;;;7.45;1.58;;;12.50;1.00;;;;;;7390828;19;20041;-69
2023/08/07 05:36:53;;;;;;;3.28;1.73;;;12.50;1.00;;;;;;7393288;19;20092;-69
2023/08/07 05:39:26;;;;;;;4.57;1.60;;;12.60;1.00;;;;;;7392751;19;20417;-69
2023/08/07 05:41:57;;;;;;;6.50;1.85;;;12.60;1.00;;;;;;7394344;19;20054;-69
2023/08/07 05:44:28;;;;;;;5.80;1.90;;;12.70;1.00;;;;;;7390806;19;20038;-69
2023/08/07 05:46:57;;;;;;;5.68;1.77;;;12.70;1.00;;;;;;7390414;19;20019;-69
2023/08/07 05:49:27;;;;;;;5.35;1.45;;;12.70;1.00;;;;;;7393900;19;20423;-69
2023/08/07 05:51:57;;;;;;;5.78;2.40;;;12.70;1.00;;;;;;7393316;19;20070;-68
2023/08/07 05:54:30;;;;;;;3.33;1.55;;;12.80;1.00;;;;;;7392238;19;20368;-69
2023/08/07 05:57:00;;;;;;;13.15;1.88;;;12.80;1.00;;;;;;7392732;19;20070;-69
2023/08/07 05:59:30;;;;;;;3.38;1.58;;;12.90;1.00;;;;;;7391865;19;20007;-69
2023/08/07 06:02:00;;;;;;;2.65;1.40;;;13.00;1.00;;;;;;7393813;19;20020;-68
2023/08/07 06:04:30;;;;;;;4.78;1.63;;;13.10;1.00;;;;;;7392827;19;20474;-68
2023/08/07 06:07:00;;;;;;;2.63;1.58;;;13.30;1.00;;;;;;7388473;19;20024;-67
2023/08/07 06:09:33;;;;;;;4.30;1.60;;;13.50;1.00;;;;;;7389635;19;20010;-69
2023/08/07 06:12:03;;;;;;;2.50;1.40;;;13.60;1.00;;;;;;7389279;19;20070;-68
2023/08/07 06:14:33;;;;;;;4.85;1.70;;;13.60;1.00;;;;;;7390106;19;20028;-68
2023/08/07 06:17:03;;;;;;;8.60;1.70;;;13.50;1.00;;;;;;7386922;19;20711;-68
2023/08/07 06:19:33;;;;;;;2.45;1.40;;;13.60;1.00;;;;;;7386008;19;20474;-68
2023/08/07 06:22:03;;;;;;;5.25;1.45;;;13.90;1.00;;;;;;7388255;19;20017;-68
2023/08/07 06:24:35;;;;;;;6.72;1.67;;;13.80;1.00;;;;;;7391282;19;20017;-69
2023/08/07 06:27:06;;;;;;;4.07;1.80;;;13.90;1.00;;;;;;7391930;19;20014;-68
2023/08/07 06:29:36;;;;;;;6.93;2.03;;;13.90;1.00;;;;;;7392482;19;20018;-68
2023/08/07 06:32:07;;;;;;;4.22;1.73;;;13.90;1.00;;;;;;7389549;19;20015;-68
2023/08/07 06:34:38;;;;;;;4.05;1.75;;;13.80;1.00;;;;;;7389072;19;20116;-68
2023/08/07 06:37:08;;;;;;;4.43;2.00;;;14.30;1.00;;;;;;7389618;19;20101;-68
2023/08/07 06:39:40;;;;;;;2.75;1.48;;;14.20;1.00;;;;;;7387844;19;20018;-67
2023/08/07 06:42:11;;;;;;;3.22;1.52;;;14.00;1.00;;;;;;7389494;19;20011;-68
2023/08/07 06:44:41;;;;;;;3.72;1.52;;;14.00;1.00;;;;;;7388890;19;20019;-68
2023/08/07 06:47:11;;;;;;;3.80;1.58;;;14.00;1.00;;;;;;7391534;19;20031;-68
2023/08/07 06:49:41;;;;;;;4.30;1.50;;;14.00;1.00;;;;;;7388640;19;20015;-68
2023/08/07 06:52:10;;;;;;;4.43;2.00;;;14.00;1.00;;;;;;7388645;19;20032;-68
2023/08/07 06:54:43;;;;;;;1.95;1.27;;;13.80;1.00;;;;;;7389048;19;20027;-68
2023/08/07 06:57:13;;;;;;;4.55;1.73;;;14.10;1.00;;;;;;7389603;19;20019;-68
2023/08/07 06:59:43;;;;;;;5.20;1.40;;;13.90;1.00;;;;;;7387480;19;20011;-68
2023/08/07 07:02:13;;;;;;;4.43;1.52;;;14.10;1.00;;;;;;7387825;19;20019;-68
2023/08/07 07:04:43;;;;;;;2.55;1.27;;;14.30;1.00;;;;;;7387000;19;20014;-68
2023/08/07 07:07:13;;;;;;;4.38;1.30;;;14.40;1.00;;;;;;7389529;19;20014;-67
2023/08/07 07:09:46;;;;;;;5.63;1.58;;;14.60;1.00;;;;;;7388782;19;20522;-67
2023/08/07 07:12:16;;;;;;;3.80;1.42;;;14.40;1.00;;;;;;7387944;19;20018;-68
2023/08/07 07:14:45;;;;;;;5.78;1.83;;;14.40;1.00;;;;;;7387704;19;20050;-68
2023/08/07 07:17:15;;;;;;;3.08;1.30;;;14.70;1.00;;;;;;7389267;19;20494;-68
2023/08/07 07:19:45;;;;;;;5.05;1.23;;;14.70;1.00;;;;;;7387036;19;20018;-67
2023/08/07 07:22:15;;;;;;;3.55;1.40;;;14.50;1.00;;;;;;7388350;19;20025;-68
2023/08/07 07:24:48;;;;;;;4.38;1.80;;;14.30;1.00;;;;;;7386609;19;20086;-69
2023/08/07 07:27:18;;;;;;;3.92;1.25;;;14.20;1.00;;;;;;7388163;19;20038;-68
2023/08/07 07:29:51;;;;;;;2.55;1.10;;;14.00;1.00;;;;;;7387032;19;20018;-67
2023/08/07 07:32:21;;;;;;;2.70;1.45;;;14.00;1.00;;;;;;7389750;19;20364;-68
2023/08/07 07:34:51;;;;;;;5.40;1.63;;;14.20;1.00;;;;;;7391346;19;20085;-68
2023/08/07 07:37:21;;;;;;;3.38;1.55;;;14.20;1.00;;;;;;7388102;19;20092;-68
2023/08/07 07:39:54;;;;;;;4.13;1.65;;;14.00;1.00;;;;;;7389007;19;20022;-68
2023/08/07 07:42:24;;;;;;;4.28;1.48;;;14.30;1.00;;;;;;7391912;19;20425;-68
2023/08/07 07:44:54;;;;;;;3.47;1.30;;;14.50;1.00;;;;;;7391398;19;20014;-68
2023/08/07 07:47:24;;;;;;;3.15;1.73;;;14.20;1.00;;;;;;7388008;19;20023;-67
2023/08/07 07:50:08;;;;;;;4.60;1.60;;;14.40;1.00;;;;;;7390554;19;20116;-68
2023/08/07 07:52:38;;;;;;;2.60;1.58;;;14.50;1.00;;;;;;7391139;19;20074;-67
2023/08/07 07:55:13;;;;;;;3.22;1.30;;;14.60;1.00;;;;;;7390649;19;20014;-67
2023/08/07 07:57:44;;;;;;;4.07;1.45;;;14.70;1.00;;;;;;7390127;19;20239;-68
2023/08/07 08:00:15;;;;;;;3.80;1.50;;;14.70;1.00;;;;;;7388821;19;20111;-70
2023/08/07 08:02:46;;;;;;;5.90;1.58;;;14.60;1.00;;;;;;7390487;19;20018;-69
2023/08/07 08:05:16;;;;;;;2.40;1.67;;;14.80;1.00;;;;;;7390808;19;20046;-68
2023/08/07 08:07:47;;;;;;;3.28;1.80;;;14.60;1.00;;;;;;7388219;19;20030;-69
2023/08/07 08:10:20;;;;;;;4.40;1.73;;;14.50;1.00;;;;;;7386476;19;20403;-67
2023/08/07 08:12:50;;;;;;;2.63;1.63;;;14.90;1.00;;;;;;7386085;19;20519;-68
2023/08/07 08:15:21;;;;;;;6.10;1.63;;;14.70;1.00;;;;;;7387130;19;20049;-68
2023/08/07 08:17:51;;;;;;;3.55;1.70;;;14.50;1.00;;;;;;7388674;19;20034;-69
2023/08/07 08:20:21;;;;;;;4.85;1.35;;;14.80;1.00;;;;;;7389667;19;20066;-68
2023/08/07 08:22:51;;;;;;;6.53;2.05;;;14.70;1.00;;;;;;7389799;19;20024;-68
2023/08/07 08:25:23;;;;;;;5.53;1.83;;;14.90;1.00;;;;;;7390150;19;20534;-69
2023/08/07 08:27:54;;;;;;;4.35;1.45;;;14.90;1.00;;;;;;7388013;19;20328;-69
2023/08/07 08:30:25;;;;;;;2.95;1.45;;;15.00;1.00;;;;;;7388299;19;20014;-67
2023/08/07 08:32:54;;;;;;;3.17;1.60;;;14.90;1.00;;;;;;7389836;19;20477;-67
2023/08/07 08:35:25;;;;;;;2.78;1.45;;;15.20;1.00;;;;;;7388078;19;20014;-67
2023/08/07 08:37:56;;;;;;;4.30;1.80;;;15.30;1.00;;;;;;7386544;19;20518;-70
2023/08/07 08:40:29;;;;;;;3.13;1.70;;;15.40;1.00;;;;;;7386715;19;20022;-69
2023/08/07 08:42:59;;;;;;;3.85;1.45;;;15.20;1.00;;;;;;7389043;19;20107;-67
2023/08/07 08:45:30;;;;;;;5.00;1.50;;;15.10;1.00;;;;;;7390532;19;20014;-68
2023/08/07 08:48:05;;;;;;;4.20;1.15;;;15.50;1.00;;;;;;7387311;19;20015;-68
2023/08/07 08:50:36;;;;;;;3.50;1.23;;;15.80;1.00;;;;;;7386516;19;20018;-68
2023/08/07 08:53:07;;;;;;;2.67;1.08;;;15.90;1.00;;;;;;7388819;19;20383;-69
2023/08/07 08:55:47;;;;;;;3.35;1.33;;;16.00;1.00;;;;;;7388908;19;20010;-68
2023/08/07 08:58:19;;;;;;;2.08;1.00;;;16.00;1.00;;;;;;7388336;19;20007;-69
2023/08/07 09:00:49;;;;;;;2.88;1.20;;;15.70;1.00;;;;;;7393371;19;20015;-68
2023/08/07 09:03:20;;;;;;;3.33;1.20;;;15.70;1.00;;;;;;7396678;19;20021;-68
2023/08/07 09:05:52;;;;;;;2.42;1.17;;;15.60;1.00;;;;;;7396554;19;20073;-67
2023/08/07 09:08:23;;;;;;;2.35;1.15;;;15.60;1.00;;;;;;7392887;19;20031;-68
2023/08/07 09:10:56;;;;;;;3.60;1.13;;;15.90;1.00;;;;;;7394181;19;20035;-68
2023/08/07 09:13:27;;;;;;;4.20;1.52;;;15.60;1.00;;;;;;7395901;19;20514;-67
2023/08/07 09:15:59;;;;;;;4.03;1.00;;;15.50;1.00;;;;;;7396517;19;20023;-68
2023/08/07 09:18:29;;;;;;;2.92;1.05;;;16.00;1.00;;;;;;7394657;19;20466;-68
2023/08/07 09:20:59;;;;;;;5.00;1.13;;;16.00;1.00;;;;;;7393228;19;20086;-67
2023/08/07 09:23:30;;;;;;;3.05;1.10;;;16.10;1.00;;;;;;7393947;19;20072;-68
2023/08/07 09:26:08;;;;;;;5.68;1.77;;;15.80;1.00;;;;;;7392307;19;20020;-68
2023/08/07 09:28:38;;;;;;;4.00;1.08;;;16.50;1.00;;;;;;7395249;19;20011;-68
2023/08/07 09:31:09;;;;;;;5.40;1.05;;;16.00;1.00;;;;;;7391906;19;20003;-67
2023/08/07 09:33:41;;;;;;;3.58;1.70;;;15.70;1.00;;;;;;7396165;19;20014;-68
2023/08/07 09:36:11;;;;;;;2.58;1.15;;;15.70;1.00;;;;;;7395531;19;20090;-67
2023/08/07 09:38:41;;;;;;;2.58;1.10;;;15.90;1.00;;;;;;7395178;19;20084;-67
2023/08/07 09:41:14;;;;;;;3.45;1.30;;;16.50;1.00;;;;;;7393515;19;20019;-68
2023/08/07 09:43:44;;;;;;;2.17;1.00;;;16.20;1.00;;;;;;7395871;19;20372;-68
2023/08/07 09:46:14;;;;;;;3.15;1.20;;;16.30;1.00;;;;;;7395174;19;20073;-68
2023/08/07 09:48:46;;;;;;;3.92;1.00;;;17.20;1.00;;;;;;7393480;19;20010;-67
2023/08/07 09:51:16;;;;;;;6.05;1.33;;;17.10;1.00;;;;;;7393197;19;20077;-69
2023/08/07 09:53:46;;;;;;;4.38;1.35;;;16.50;1.00;;;;;;7395715;19;20014;-67
2023/08/07 09:56:19;;;;;;;6.22;1.38;;;16.80;1.00;;;;;;7394783;19;20037;-68
2023/08/07 09:58:52;;;;;;;4.22;1.13;;;16.60;1.00;;;;;;7394744;19;20006;-68
2023/08/07 10:01:21;;;;;;;3.15;1.15;;;17.00;1.00;;;;;;7393258;19;20022;-69
2023/08/07 10:03:52;;;;;;;2.58;1.13;;;17.00;1.00;;;;;;7395250;19;20338;-68
2023/08/07 10:06:23;;;;;;;2.15;1.05;;;17.20;1.00;;;;;;7395378;19;20009;-69
2023/08/07 10:08:53;;;;;;;1.77;1.10;;;16.70;1.00;;;;;;7394373;19;20022;-67
2023/08/07 10:11:26;;;;;;;2.67;1.33;;;17.50;1.00;;;;;;7391748;19;20037;-68
2023/08/07 10:13:57;;;;;;;4.50;1.10;;;17.90;1.00;;;;;;7394684;19;20540;-68
2023/08/07 10:16:29;;;;;;;2.22;1.17;;;17.70;1.00;;;;;;7395893;19;20021;-69
2023/08/07 10:18:59;;;;;;;2.03;1.10;;;17.40;1.00;;;;;;7393000;19;20082;-68
2023/08/07 10:21:29;;;;;;;2.08;1.08;;;17.40;1.00;;;;;;7392445;19;20014;-68
2023/08/07 10:24:01;;;;;;;3.13;1.38;;;17.20;1.00;;;;;;7394374;19;20020;-68
2023/08/07 10:26:34;;;;;;;2.53;1.23;;;16.70;1.00;;;;;;7394481;19;20011;-68
2023/08/07 10:29:07;;;;;;;3.05;1.27;;;17.10;1.00;;;;;;7393069;19;20003;-68
2023/08/07 10:31:38;;;;;;;2.70;1.17;;;16.80;1.00;;;;;;7390541;19;20022;-68
2023/08/07 10:34:08;;;;;;;2.10;1.00;;;16.50;1.00;;;;;;7389222;19;20018;-69
2023/08/07 10:36:40;;;;;;;1.88;1.23;;;16.20;1.00;;;;;;7392589;19;20013;-69
2023/08/07 10:39:11;;;;;;;1.70;1.20;;;16.00;1.00;;;;;;7391754;19;20007;-69
2023/08/07 10:41:47;;;;;;;2.90;1.20;;;16.50;1.00;;;;;;7390985;19;20028;-68
2023/08/07 10:44:21;;;;;;;3.83;1.10;;;16.70;1.00;;;;;;7391353;19;20011;-68
2023/08/07 10:46:54;;;;;;;3.00;1.20;;;16.70;1.00;;;;;;7390958;19;20038;-68
2023/08/07 10:49:35;;;;;;;1.88;1.13;;;16.50;1.00;;;;;;7392037;19;20074;-69
2023/08/07 10:52:10;;;;;;;1.63;1.10;;;16.40;1.00;;;;;;7392051;19;20058;-67
2023/08/07 10:54:43;;;;;;;;;;;16.50;1.00;;;;;;7388977;19;20018;-70
2023/08/07 10:57:17;;;;;;;2.92;1.92;;;16.70;1.00;;;;;;7388943;19;19946;-68
2023/08/07 10:59:52;;;;;;;6.68;1.70;;;16.90;1.00;;;;;;7386705;19;20089;-68
2023/08/07 11:02:27;;;;;;;3.03;1.05;;;16.70;1.00;;;;;;7389661;19;20086;-68
2023/08/07 11:04:57;;;;;;;2.30;1.00;;;16.60;1.00;;;;;;7389884;19;20010;-69
2023/08/07 11:07:29;;;;;;;3.22;1.17;;;16.40;1.00;;;;;;7388172;19;20015;-68
2023/08/07 11:10:01;;;;;;;2.95;1.45;;;16.20;1.00;;;;;;7383736;19;20014;-69
2023/08/07 11:12:36;;;;;;;5.00;1.60;;;16.10;1.00;;;;;;7384213;19;20029;-69
2023/08/07 11:15:07;;;;;;;6.00;1.30;;;16.10;1.00;;;;;;7388687;19;20046;-69
2023/08/07 11:17:37;;;;;;;5.13;1.45;;;16.00;1.00;;;;;;7387196;19;20028;-69
2023/08/07 11:20:08;;;;;;;4.35;1.67;;;16.30;1.00;;;;;;7389671;19;20018;-69
2023/08/07 11:22:40;;;;;;;3.20;1.73;;;16.30;1.00;;;;;;7386491;19;20043;-68
2023/08/07 11:25:15;;;;;;;5.00;1.40;;;16.30;1.00;;;;;;7386826;19;20028;-69
2023/08/07 11:27:48;;;;;;;4.40;1.25;;;16.40;1.00;;;;;;7390571;19;20030;-68
2023/08/07 11:30:19;;;;;;;8.27;1.30;;;16.50;1.00;;;;;;7389275;19;20014;-69
2023/08/07 11:32:49;;;;;;;4.28;1.48;;;16.20;1.00;;;;;;7386318;19;20023;-68
2023/08/07 11:35:19;;;;;;;5.10;1.27;;;16.60;1.00;;;;;;7388209;19;20681;-69
2023/08/07 11:37:50;;;;;;;4.85;1.35;;;16.70;1.00;;;;;;7387826;19;20013;-69
2023/08/07 11:40:20;;;;;;;2.45;1.23;;;16.60;1.00;;;;;;7387675;19;20370;-69
2023/08/07 11:42:53;;;;;;;2.13;1.20;;;16.70;1.00;;;;;;7389070;19;20458;-68
2023/08/07 11:45:23;;;;;;;2.10;1.58;;;16.50;1.00;;;;;;7390696;19;20091;-68
2023/08/07 11:47:55;;;;;;;2.42;1.40;;;16.50;1.00;;;;;;7387509;19;20546;-68
2023/08/07 11:50:25;;;;;;;2.30;1.20;;;16.40;1.00;;;;;;7388289;19;20809;-69
2023/08/07 11:53:00;;;;;;;3.10;1.20;;;16.60;1.00;;;;;;7388600;19;20094;-67
2023/08/07 11:55:32;;;;;;;1.73;1.20;;;16.40;1.00;;;;;;7388031;19;20070;-68
2023/08/07 11:58:06;;;;;;;2.40;1.55;;;16.20;1.00;;;;;;7387171;19;20014;-68
2023/08/07 12:00:36;;;;;;;4.40;1.30;;;16.40;1.00;;;;;;7387184;19;20018;-67
2023/08/07 12:03:25;;;;;;;10.27;2.13;;;16.50;1.00;;;;;;7387500;19;20015;-68
2023/08/07 12:05:56;;;;;;;3.83;1.73;;;16.60;1.00;;;;;;7387927;19;20007;-68
2023/08/07 12:08:26;;;;;;;4.85;1.60;;;16.70;1.00;;;;;;7387489;19;20007;-69
2023/08/07 12:10:56;;;;;;;5.03;1.58;;;16.90;1.00;;;;;;7387221;19;20018;-69
2023/08/07 12:13:29;;;;;;;4.28;1.52;;;16.90;1.00;;;;;;7388030;19;20015;-69
2023/08/07 12:16:00;;;;;;;1.60;1.27;;;17.30;1.00;;;;;;7388368;19;20041;-69
2023/08/07 12:18:31;;;;;;;4.43;2.30;;;17.40;1.00;;;;;;7386274;19;20018;-68
2023/08/07 12:21:03;;;;;;;2.00;1.35;;;17.70;1.00;;;;;;7387083;19;20010;-68
2023/08/07 12:23:36;;;;;;;2.40;1.30;;;17.60;1.00;;;;;;7385822;19;20015;-69
2023/08/07 12:26:08;;;;;;;2.70;1.52;;;17.10;1.00;;;;;;7388415;19;20335;-69
2023/08/07 12:28:40;;;;;;;2.22;1.35;;;17.30;1.00;;;;;;7387490;19;20018;-68
2023/08/07 12:31:10;;;;;;;5.72;1.60;;;17.30;1.00;;;;;;7385843;19;20074;-68
2023/08/07 12:33:40;;;;;;;3.90;1.20;;;16.90;1.00;;;;;;7389453;19;20017;-69
2023/08/07 12:36:10;;;;;;;2.80;1.42;;;17.40;1.00;;;;;;7394409;19;20107;-69
2023/08/07 12:38:43;;;;;;;5.40;1.60;;;17.80;1.00;;;;;;7394147;19;20393;-69
2023/08/07 12:41:14;;;;;;;1.90;1.30;;;17.40;1.00;;;;;;7392279;19;20019;-69
2023/08/07 12:43:49;;;;;;;2.10;1.40;;;16.90;1.00;;;;;;7395254;19;20404;-69
2023/08/07 12:46:19;;;;;;;3.63;1.60;;;17.10;1.00;;;;;;7396903;19;20011;-69
2023/08/07 12:48:52;;;;;;;4.05;1.75;;;17.90;1.00;;;;;;7396023;19;20344;-69
2023/08/07 12:51:22;;;;;;;6.43;1.50;;;18.00;1.00;;;;;;7392153;19;20018;-68
2023/08/07 12:53:52;;;;;;;2.72;1.58;;;18.10;1.00;;;;;;7396909;19;20007;-69
2023/08/07 12:56:22;;;;;;;2.17;1.40;;;17.80;1.00;;;;;;7397165;19;20029;-70
2023/08/07 12:58:54;;;;;;;2.78;1.23;;;17.70;1.00;;;;;;7396319;19;21178;-70
2023/08/07 13:01:25;;;;;;;1.40;1.17;;;17.90;1.00;;;;;;7394333;19;20358;-68
2023/08/07 13:03:55;;;;;;;2.88;1.25;;;17.60;1.00;;;;;;7391896;19;20011;-69
2023/08/07 13:06:25;;;;;;;4.88;1.30;;;17.50;1.00;;;;;;7395789;19;20104;-68
2023/08/07 13:08:56;;;;;;;2.00;1.40;;;17.20;1.00;;;;;;7395967;19;20482;-68
2023/08/07 13:11:26;;;;;;;2.47;1.30;;;17.50;1.00;;;;;;7382619;19;20466;-68
2023/08/07 13:13:58;;;;;;;1.33;1.15;;;17.50;1.00;;;;;;7393399;19;20011;-69
2023/08/07 13:16:28;;;;;;;2.45;1.50;;;17.60;1.00;;;;;;7388809;19;21591;-69
2023/08/07 13:18:58;;;;;;;2.50;1.35;;;17.80;1.00;;;;;;7393683;19;20031;-69